createdAt,value
2022-12-13T00:00:52.248Z,99.99
2022-12-13T00:01:52.252Z,99.99
2022-12-13T00:02:52.165Z,99.99
2022-12-13T00:03:52.175Z,99.99
2022-12-13T00:04:52.053Z,99.99
2022-12-13T00:05:52.013Z,99.99
2022-12-13T00:06:51.959Z,99.99
2022-12-13T00:07:51.980Z,99.99
2022-12-13T00:08:51.873Z,99.99
2022-12-13T00:09:51.814Z,99.99
2022-12-13T00:10:51.768Z,99.99
2022-12-13T00:11:51.720Z,99.91
2022-12-13T00:12:51.671Z,99.99
2022-12-13T00:13:51.626Z,99.70
2022-12-13T00:14:51.588Z,99.99
2022-12-13T00:15:51.534Z,99.18
2022-12-13T00:16:51.508Z,99.28
2022-12-13T00:17:51.432Z,99.60
2022-12-13T00:18:51.386Z,98.44
2022-12-13T00:19:51.339Z,99.60
2022-12-13T00:20:51.300Z,99.07
2022-12-13T00:21:51.267Z,98.75
2022-12-13T00:22:51.196Z,99.38
2022-12-13T00:23:51.144Z,99.44
2022-12-13T00:24:51.095Z,99.28
2022-12-13T00:25:51.048Z,98.86
2022-12-13T00:26:50.996Z,99.28
2022-12-13T00:27:50.978Z,98.75
2022-12-13T00:28:50.900Z,98.86
2022-12-13T00:29:50.867Z,99.28
2022-12-13T00:30:50.860Z,98.28
2022-12-13T00:31:59.303Z,99.22
2022-12-13T00:32:50.710Z,99.22
2022-12-13T00:33:50.676Z,99.33
2022-12-13T00:34:50.621Z,99.33
2022-12-13T00:35:50.570Z,99.99
2022-12-13T00:36:50.523Z,99.99
2022-12-13T00:37:50.474Z,99.64
2022-12-13T00:38:50.444Z,99.99
2022-12-13T00:39:50.382Z,99.99
2022-12-13T00:40:50.331Z,99.99
2022-12-13T00:41:50.283Z,99.99
2022-12-13T00:42:50.230Z,99.90
2022-12-13T00:43:50.188Z,99.99
2022-12-13T00:44:50.156Z,99.99
2022-12-13T00:45:50.194Z,99.99
2022-12-13T00:46:50.050Z,99.99
2022-12-13T00:47:50.000Z,99.99
2022-12-13T00:48:49.944Z,99.99
2022-12-13T00:49:49.909Z,99.99
2022-12-13T00:50:49.862Z,99.99
2022-12-13T00:51:49.953Z,99.99
2022-12-13T00:52:49.754Z,99.99
2022-12-13T00:53:49.710Z,99.99
2022-12-13T00:54:49.658Z,99.99
2022-12-13T00:55:49.619Z,99.99
2022-12-13T00:56:49.559Z,99.99
2022-12-13T00:57:49.536Z,99.99
2022-12-13T00:58:52.106Z,99.99
2022-12-13T00:59:49.427Z,99.99
2022-12-13T01:00:49.370Z,99.99
2022-12-13T01:01:49.399Z,99.99
2022-12-13T01:02:49.278Z,99.99
2022-12-13T01:03:49.243Z,99.99
2022-12-13T01:04:49.174Z,99.99
2022-12-13T01:06:14.181Z,99.99
2022-12-13T01:06:49.083Z,99.99
2022-12-13T01:07:49.064Z,99.99
2022-12-13T01:08:48.986Z,99.99
2022-12-13T01:09:48.956Z,99.99
2022-12-13T01:10:48.890Z,99.99
2022-12-13T01:11:48.852Z,99.99
2022-12-13T01:12:48.795Z,99.99
2022-12-13T01:13:48.752Z,99.99
2022-12-13T01:14:51.833Z,99.99
2022-12-13T01:15:48.662Z,99.99
2022-12-13T01:16:48.657Z,99.99
2022-12-13T01:17:48.558Z,99.99
2022-12-13T01:18:48.506Z,99.99
2022-12-13T01:19:48.462Z,99.99
2022-12-13T01:20:48.411Z,99.99
2022-12-13T01:21:48.370Z,99.99
2022-12-13T01:22:48.323Z,99.99
2022-12-13T01:23:48.270Z,99.99
2022-12-13T01:24:48.218Z,99.99
2022-12-13T01:25:48.173Z,99.99
2022-12-13T01:26:48.135Z,99.99
2022-12-13T01:27:48.083Z,99.99
2022-12-13T01:28:48.024Z,99.79
2022-12-13T01:29:47.984Z,99.99
2022-12-13T01:30:47.953Z,99.99
2022-12-13T01:31:47.885Z,99.90
2022-12-13T01:32:47.851Z,99.99
2022-12-13T01:33:47.787Z,99.99
2022-12-13T01:34:47.738Z,99.37
2022-12-13T01:35:47.692Z,99.99
2022-12-13T01:36:47.648Z,99.58
2022-12-13T01:37:47.594Z,99.27
2022-12-13T01:38:47.569Z,99.99
2022-12-13T01:39:47.503Z,99.99
2022-12-13T01:40:47.452Z,99.52
2022-12-13T01:41:47.407Z,99.84
2022-12-13T01:42:47.356Z,99.99
2022-12-13T01:43:47.309Z,99.99
2022-12-13T01:44:47.275Z,99.99
2022-12-13T01:45:47.244Z,99.99
2022-12-13T01:46:47.162Z,99.99
2022-12-13T01:47:47.119Z,99.99
2022-12-13T01:48:47.065Z,99.88
2022-12-13T01:49:47.020Z,99.99
2022-12-13T01:50:46.988Z,99.99
2022-12-13T01:51:46.931Z,99.99
2022-12-13T01:52:46.872Z,99.99
2022-12-13T01:53:46.833Z,99.99
2022-12-13T01:54:47.014Z,99.99
2022-12-13T01:55:46.731Z,99.99
2022-12-13T01:56:46.695Z,99.99
2022-12-13T01:57:46.653Z,99.99
2022-12-13T01:58:46.583Z,99.99
2022-12-13T01:59:46.538Z,99.99
2022-12-13T02:00:46.488Z,99.99
2022-12-13T02:01:46.496Z,99.99
2022-12-13T02:02:46.396Z,99.99
2022-12-13T02:03:46.352Z,99.99
2022-12-13T02:04:46.401Z,99.99
2022-12-13T02:05:46.248Z,99.99
2022-12-13T02:06:46.202Z,99.99
2022-12-13T02:07:46.173Z,99.99
2022-12-13T02:08:46.108Z,99.99
2022-12-13T02:09:46.057Z,99.99
2022-12-13T02:10:46.004Z,99.99
2022-12-13T02:11:45.961Z,99.99
2022-12-13T02:12:45.908Z,99.99
2022-12-13T02:13:45.884Z,99.99
2022-12-13T02:14:45.816Z,99.99
2022-12-13T02:15:45.834Z,99.99
2022-12-13T02:16:45.719Z,99.99
2022-12-13T02:17:45.942Z,99.99
2022-12-13T02:18:45.618Z,99.99
2022-12-13T02:19:45.587Z,99.99
2022-12-13T02:20:45.523Z,99.99
2022-12-13T02:21:45.478Z,99.99
2022-12-13T02:22:45.429Z,99.99
2022-12-13T02:23:45.382Z,99.99
2022-12-13T02:24:45.347Z,99.99
2022-12-13T02:25:45.283Z,99.99
2022-12-13T02:26:45.265Z,99.99
2022-12-13T02:27:45.267Z,99.99
2022-12-13T02:28:45.143Z,99.99
2022-12-13T02:29:45.088Z,99.99
2022-12-13T02:30:45.067Z,99.99
2022-12-13T02:31:45.010Z,99.99
2022-12-13T02:32:44.947Z,99.99
2022-12-13T02:33:44.909Z,99.99
2022-12-13T02:34:44.856Z,99.99
2022-12-13T02:35:44.801Z,99.99
2022-12-13T02:36:44.766Z,99.99
2022-12-13T02:37:44.702Z,99.99
2022-12-13T02:38:44.657Z,99.99
2022-12-13T02:39:44.609Z,99.99
2022-12-13T02:40:44.563Z,99.99
2022-12-13T02:41:44.518Z,99.99
2022-12-13T02:42:44.474Z,99.99
2022-12-13T02:43:45.336Z,99.99
2022-12-13T02:44:44.367Z,99.99
2022-12-13T02:45:44.335Z,99.99
2022-12-13T02:46:44.315Z,99.99
2022-12-13T02:47:44.228Z,99.99
2022-12-13T02:48:44.174Z,99.99
2022-12-13T02:49:44.121Z,99.99
2022-12-13T02:50:44.075Z,99.99
2022-12-13T02:51:44.026Z,99.99
2022-12-13T02:52:43.989Z,99.99
2022-12-13T02:53:43.926Z,99.99
2022-12-13T02:54:43.889Z,99.99
2022-12-13T02:55:43.837Z,99.99
2022-12-13T02:56:43.789Z,99.99
2022-12-13T02:57:43.747Z,99.99
2022-12-13T02:58:43.691Z,99.99
2022-12-13T02:59:43.638Z,99.99
2022-12-13T03:00:43.593Z,99.99
2022-12-13T03:01:43.563Z,99.99
2022-12-13T03:02:43.727Z,99.99
2022-12-13T03:03:43.461Z,99.99
2022-12-13T03:04:43.396Z,99.99
2022-12-13T03:05:43.346Z,99.99
2022-12-13T03:06:43.300Z,99.99
2022-12-13T03:07:43.250Z,99.99
2022-12-13T03:08:43.221Z,99.99
2022-12-13T03:09:43.151Z,99.99
2022-12-13T03:10:43.106Z,99.99
2022-12-13T03:11:43.057Z,99.99
2022-12-13T03:12:43.007Z,99.99
2022-12-13T03:13:42.959Z,99.99
2022-12-13T03:14:42.929Z,99.99
2022-12-13T03:15:42.908Z,99.99
2022-12-13T03:16:42.818Z,99.99
2022-12-13T03:17:42.768Z,99.99
2022-12-13T03:18:42.718Z,99.99
2022-12-13T03:19:42.667Z,99.99
2022-12-13T03:20:42.631Z,99.99
2022-12-13T03:21:47.388Z,99.99
2022-12-13T03:22:42.538Z,99.99
2022-12-13T03:23:42.475Z,99.99
2022-12-13T03:24:42.427Z,99.99
2022-12-13T03:25:42.379Z,99.99
2022-12-13T03:26:42.341Z,99.99
2022-12-13T03:27:42.283Z,99.99
2022-12-13T03:28:42.251Z,99.99
2022-12-13T03:29:42.182Z,99.99
2022-12-13T03:30:42.138Z,99.99
2022-12-13T03:31:42.129Z,99.99
2022-12-13T03:32:42.043Z,99.99
2022-12-13T03:33:41.987Z,99.99
2022-12-13T03:34:43.590Z,99.99
2022-12-13T03:35:44.377Z,99.99
2022-12-13T03:36:41.845Z,99.99
2022-12-13T03:37:41.794Z,99.99
2022-12-13T03:38:41.750Z,99.99
2022-12-13T03:39:41.700Z,99.99
2022-12-13T03:40:41.666Z,99.99
2022-12-13T03:41:41.603Z,99.99
2022-12-13T03:42:41.563Z,99.99
2022-12-13T03:43:41.506Z,99.99
2022-12-13T03:44:41.461Z,99.99
2022-12-13T03:45:41.414Z,99.99
2022-12-13T03:46:41.441Z,99.99
2022-12-13T03:47:41.312Z,99.99
2022-12-13T03:48:41.263Z,99.99
2022-12-13T03:49:41.220Z,99.99
2022-12-13T03:50:41.166Z,99.99
2022-12-13T03:51:41.149Z,99.99
2022-12-13T03:52:41.068Z,99.99
2022-12-13T03:53:41.017Z,99.99
2022-12-13T03:54:40.970Z,99.99
2022-12-13T03:55:40.921Z,99.99
2022-12-13T03:56:40.892Z,99.99
2022-12-13T03:57:40.824Z,99.99
2022-12-13T03:58:40.780Z,99.99
2022-12-13T03:59:40.726Z,99.99
2022-12-13T04:00:40.683Z,99.99
2022-12-13T04:01:40.731Z,99.99
2022-12-13T04:02:40.619Z,99.99
2022-12-13T04:03:40.542Z,99.99
2022-12-13T04:04:40.489Z,99.99
2022-12-13T04:05:40.435Z,99.99
2022-12-13T04:06:40.463Z,99.99
2022-12-13T04:07:40.346Z,99.99
2022-12-13T04:08:40.337Z,99.99
2022-12-13T04:09:40.260Z,99.99
2022-12-13T04:10:40.195Z,99.99
2022-12-13T04:11:42.681Z,99.99
2022-12-13T04:12:43.070Z,99.99
2022-12-13T04:13:40.047Z,99.99
2022-12-13T04:14:40.000Z,99.99
2022-12-13T04:15:39.965Z,99.99
2022-12-13T04:16:39.904Z,99.99
2022-12-13T04:17:39.852Z,99.99
2022-12-13T04:18:39.807Z,99.99
2022-12-13T04:19:39.769Z,99.99
2022-12-13T04:20:39.706Z,99.99
2022-12-13T04:21:39.667Z,99.99
2022-12-13T04:22:39.610Z,99.99
2022-12-13T04:23:39.563Z,99.99
2022-12-13T04:24:39.514Z,99.99
2022-12-13T04:25:39.482Z,99.99
2022-12-13T04:26:39.415Z,99.99
2022-12-13T04:27:39.363Z,99.99
2022-12-13T04:28:39.321Z,99.99
2022-12-13T04:29:39.267Z,99.99
2022-12-13T04:30:39.224Z,99.99
2022-12-13T04:31:39.217Z,99.99
2022-12-13T04:32:39.125Z,99.99
2022-12-13T04:33:39.070Z,99.99
2022-12-13T04:34:39.037Z,99.99
2022-12-13T04:35:38.974Z,99.99
2022-12-13T04:36:38.936Z,99.99
2022-12-13T04:37:38.891Z,99.99
2022-12-13T04:38:38.832Z,99.99
2022-12-13T04:39:38.784Z,99.99
2022-12-13T04:40:38.733Z,99.99
2022-12-13T04:41:38.682Z,99.99
2022-12-13T04:42:38.637Z,99.99
2022-12-13T04:43:38.607Z,99.99
2022-12-13T04:44:41.194Z,99.99
2022-12-13T04:45:38.528Z,99.99
2022-12-13T04:46:38.444Z,99.99
2022-12-13T04:47:38.395Z,99.99
2022-12-13T04:48:38.348Z,99.99
2022-12-13T04:49:38.313Z,99.99
2022-12-13T04:50:38.249Z,99.99
2022-12-13T04:51:38.196Z,99.99
2022-12-13T04:52:38.153Z,99.99
2022-12-13T04:53:38.100Z,99.99
2022-12-13T04:54:38.052Z,99.99
2022-12-13T04:55:38.010Z,99.99
2022-12-13T04:56:37.966Z,99.99
2022-12-13T04:57:37.912Z,99.99
2022-12-13T04:58:37.862Z,99.99
2022-12-13T04:59:37.810Z,99.99
2022-12-13T05:00:37.834Z,99.99
2022-12-13T05:01:37.723Z,99.99
2022-12-13T05:02:37.707Z,99.99
2022-12-13T05:03:37.617Z,99.99
2022-12-13T05:04:37.569Z,99.99
2022-12-13T05:05:37.516Z,99.99
2022-12-13T05:06:37.490Z,99.99
2022-12-13T05:07:42.396Z,99.99
2022-12-13T05:08:37.379Z,99.99
2022-12-13T05:09:37.320Z,99.99
2022-12-13T05:10:38.159Z,99.99
2022-12-13T05:11:37.225Z,99.99
2022-12-13T05:12:37.196Z,99.99
2022-12-13T05:13:37.129Z,99.99
2022-12-13T05:14:37.101Z,99.99
2022-12-13T05:15:37.030Z,99.99
2022-12-13T05:16:37.033Z,99.99
2022-12-13T05:17:36.930Z,99.99
2022-12-13T05:18:36.897Z,99.99
2022-12-13T05:19:36.839Z,99.99
2022-12-13T05:20:36.805Z,99.99
2022-12-13T05:21:36.750Z,99.99
2022-12-13T05:22:36.693Z,99.99
2022-12-13T05:23:36.641Z,99.99
2022-12-13T05:24:36.597Z,99.99
2022-12-13T05:25:36.559Z,99.99
2022-12-13T05:26:36.514Z,99.99
2022-12-13T05:27:36.447Z,99.99
2022-12-13T05:28:36.398Z,99.99
2022-12-13T05:29:36.355Z,99.99
2022-12-13T05:30:36.308Z,99.99
2022-12-13T05:31:36.298Z,99.99
2022-12-13T05:32:44.310Z,99.99
2022-12-13T05:33:36.169Z,99.99
2022-12-13T05:34:36.107Z,99.99
2022-12-13T05:35:36.059Z,99.99
2022-12-13T05:36:36.011Z,99.99
2022-12-13T05:37:35.960Z,99.99
2022-12-13T05:38:35.920Z,99.99
2022-12-13T05:39:35.876Z,99.99
2022-12-13T05:40:35.823Z,99.99
2022-12-13T05:41:35.819Z,99.99
2022-12-13T05:42:35.720Z,99.99
2022-12-13T05:43:43.334Z,99.99
2022-12-13T05:44:35.620Z,99.99
2022-12-13T05:45:35.606Z,99.99
2022-12-13T05:46:41.307Z,99.99
2022-12-13T05:47:35.503Z,99.99
2022-12-13T05:48:35.427Z,99.99
2022-12-13T05:49:35.370Z,99.99
2022-12-13T05:50:35.325Z,99.99
2022-12-13T05:51:35.283Z,99.99
2022-12-13T05:52:35.230Z,99.99
2022-12-13T05:53:35.195Z,99.99
2022-12-13T05:54:35.139Z,99.99
2022-12-13T05:55:35.079Z,99.99
2022-12-13T05:56:35.032Z,99.99
2022-12-13T05:57:34.980Z,99.99
2022-12-13T05:58:35.691Z,99.99
2022-12-13T05:59:34.920Z,99.99
2022-12-13T06:00:34.838Z,99.99
2022-12-13T06:01:34.788Z,99.99
2022-12-13T06:02:34.831Z,99.99
2022-12-13T06:03:34.785Z,99.99
2022-12-13T06:04:34.639Z,99.99
2022-12-13T06:05:34.617Z,99.99
2022-12-13T06:06:34.546Z,99.99
2022-12-13T06:07:34.495Z,99.99
2022-12-13T06:08:34.495Z,99.99
2022-12-13T06:09:40.033Z,99.99
2022-12-13T06:10:35.475Z,99.99
2022-12-13T06:11:34.318Z,99.99
2022-12-13T06:12:34.256Z,99.99
2022-12-13T06:13:34.201Z,99.99
2022-12-13T06:14:34.155Z,99.99
2022-12-13T06:15:34.860Z,99.99
2022-12-13T06:16:34.107Z,99.99
2022-12-13T06:17:34.026Z,99.99
2022-12-13T06:18:33.964Z,99.99
2022-12-13T06:19:33.909Z,99.99
2022-12-13T06:20:33.862Z,99.99
2022-12-13T06:21:41.070Z,99.99
2022-12-13T06:22:33.768Z,99.99
2022-12-13T06:23:33.728Z,99.99
2022-12-13T06:24:33.673Z,99.99
2022-12-13T06:25:33.616Z,99.99
2022-12-13T06:26:33.604Z,99.99
2022-12-13T06:27:33.518Z,99.99
2022-12-13T06:28:33.473Z,99.99
2022-12-13T06:29:33.423Z,99.99
2022-12-13T06:30:33.405Z,99.99
2022-12-13T06:31:33.326Z,99.99
2022-12-13T06:32:33.297Z,99.99
2022-12-13T06:33:33.229Z,99.99
2022-12-13T06:34:33.183Z,99.99
2022-12-13T06:35:38.076Z,99.99
2022-12-13T06:36:33.094Z,99.99
2022-12-13T06:37:33.033Z,99.99
2022-12-13T06:38:33.006Z,99.99
2022-12-13T06:39:33.785Z,99.99
2022-12-13T06:40:32.893Z,99.99
2022-12-13T06:41:32.836Z,99.99
2022-12-13T06:42:32.785Z,99.99
2022-12-13T06:43:32.751Z,99.99
2022-12-13T06:44:32.706Z,99.99
2022-12-13T06:45:32.640Z,99.99
2022-12-13T06:46:32.748Z,99.99
2022-12-13T06:47:32.723Z,99.99
2022-12-13T06:48:32.493Z,99.99
2022-12-13T06:49:32.653Z,99.99
2022-12-13T06:50:32.395Z,99.99
2022-12-13T06:51:33.501Z,99.99
2022-12-13T06:52:32.298Z,99.99
2022-12-13T06:53:32.252Z,99.99
2022-12-13T06:54:32.204Z,99.99
2022-12-13T06:55:32.158Z,99.99
2022-12-13T06:56:32.118Z,99.99
2022-12-13T06:57:32.062Z,99.99
2022-12-13T06:58:32.006Z,99.99
2022-12-13T06:59:31.957Z,99.99
2022-12-13T07:00:35.656Z,99.99
2022-12-13T07:01:37.467Z,99.99
2022-12-13T07:02:31.916Z,99.99
2022-12-13T07:03:31.884Z,99.99
2022-12-13T07:04:31.739Z,99.99
2022-12-13T07:05:31.666Z,99.99
2022-12-13T07:06:31.616Z,99.99
2022-12-13T07:07:31.585Z,99.99
2022-12-13T07:08:31.550Z,99.99
2022-12-13T07:09:31.479Z,99.99
2022-12-13T07:10:31.419Z,99.99
2022-12-13T07:11:31.371Z,99.99
2022-12-13T07:12:31.326Z,99.99
2022-12-13T07:13:31.275Z,99.99
2022-12-13T07:14:31.232Z,99.99
2022-12-13T07:15:31.236Z,99.99
2022-12-13T07:16:31.124Z,99.99
2022-12-13T07:17:33.379Z,99.99
2022-12-13T07:18:31.032Z,99.99
2022-12-13T07:19:35.233Z,99.99
2022-12-13T07:20:30.925Z,99.99
2022-12-13T07:21:30.880Z,99.99
2022-12-13T07:22:34.921Z,99.99
2022-12-13T07:23:30.785Z,99.99
2022-12-13T07:24:30.732Z,99.99
2022-12-13T07:25:30.709Z,99.99
2022-12-13T07:26:30.637Z,99.99
2022-12-13T07:27:30.600Z,99.99
2022-12-13T07:28:30.535Z,99.99
2022-12-13T07:29:30.494Z,99.99
2022-12-13T07:30:30.439Z,99.99
2022-12-13T07:31:30.465Z,99.99
2022-12-13T07:32:30.373Z,99.99
2022-12-13T07:33:30.291Z,99.99
2022-12-13T07:34:30.275Z,99.99
2022-12-13T07:35:30.201Z,99.99
2022-12-13T07:36:30.147Z,99.99
2022-12-13T07:37:31.139Z,99.99
2022-12-13T07:38:30.053Z,99.99
2022-12-13T07:39:30.002Z,99.99
2022-12-13T07:40:29.954Z,99.99
2022-12-13T07:41:29.973Z,99.99
2022-12-13T07:42:29.852Z,99.99
2022-12-13T07:43:29.820Z,99.99
2022-12-13T07:44:29.778Z,99.99
2022-12-13T07:45:29.712Z,99.99
2022-12-13T07:46:32.885Z,99.99
2022-12-13T07:47:29.611Z,99.99
2022-12-13T07:48:29.559Z,99.99
2022-12-13T07:49:29.527Z,99.99
2022-12-13T07:50:29.531Z,99.99
2022-12-13T07:51:29.414Z,99.99
2022-12-13T07:52:29.368Z,99.99
2022-12-13T07:53:29.323Z,99.99
2022-12-13T07:54:29.266Z,99.99
2022-12-13T07:55:33.097Z,99.99
2022-12-13T07:56:29.179Z,99.99
2022-12-13T07:57:29.132Z,99.99
2022-12-13T07:58:29.136Z,99.99
2022-12-13T07:59:29.208Z,99.99
2022-12-13T08:00:28.972Z,99.99
2022-12-13T08:01:28.998Z,99.99
2022-12-13T08:02:28.883Z,99.99
2022-12-13T08:03:28.976Z,99.99
2022-12-13T08:04:28.841Z,99.99
2022-12-13T08:05:28.799Z,99.99
2022-12-13T08:06:28.684Z,99.99
2022-12-13T08:07:28.653Z,99.99
2022-12-13T08:08:30.685Z,99.99
2022-12-13T08:09:28.537Z,99.99
2022-12-13T08:10:28.486Z,99.99
2022-12-13T08:11:28.444Z,99.99
2022-12-13T08:12:28.385Z,99.93
2022-12-13T08:13:28.379Z,99.99
2022-12-13T08:14:28.293Z,99.99
2022-12-13T08:15:28.248Z,98.93
2022-12-13T08:16:29.690Z,99.46
2022-12-13T08:17:28.143Z,99.46
2022-12-13T08:18:28.202Z,99.67
2022-12-13T08:19:28.069Z,99.78
2022-12-13T08:20:27.993Z,98.99
2022-12-13T08:21:53.464Z,98.99
2022-12-13T08:22:27.898Z,98.89
2022-12-13T08:23:27.861Z,98.59
2022-12-13T08:24:27.877Z,98.17
2022-12-13T08:25:27.781Z,97.96
2022-12-13T08:26:27.717Z,96.61
2022-12-13T08:27:27.661Z,96.98
2022-12-13T08:28:27.609Z,96.10
2022-12-13T08:29:34.670Z,95.10
2022-12-13T08:30:27.608Z,94.12
2022-12-13T08:31:27.503Z,93.44
2022-12-13T08:32:27.428Z,92.99
2022-12-13T08:33:27.386Z,91.68
2022-12-13T08:34:27.323Z,90.25
2022-12-13T08:35:32.059Z,89.69
2022-12-13T08:36:27.230Z,90.42
2022-12-13T08:37:27.203Z,90.64
2022-12-13T08:38:27.135Z,90.91
2022-12-13T08:39:34.565Z,90.38
2022-12-13T08:40:27.040Z,89.86
2022-12-13T08:41:27.009Z,88.60
2022-12-13T08:42:26.946Z,90.38
2022-12-13T08:43:26.918Z,90.45
2022-12-13T08:44:26.853Z,89.29
2022-12-13T08:45:26.820Z,89.19
2022-12-13T08:46:26.859Z,89.00
2022-12-13T08:47:27.009Z,88.02
2022-12-13T08:48:26.681Z,87.15
2022-12-13T08:49:26.705Z,86.52
2022-12-13T08:50:26.594Z,85.26
2022-12-13T08:51:32.255Z,85.47
2022-12-13T08:52:26.497Z,85.12
2022-12-13T08:53:28.699Z,85.43
2022-12-13T08:54:31.267Z,84.45
2022-12-13T08:55:31.831Z,83.78
2022-12-13T08:56:26.311Z,82.89
2022-12-13T08:57:26.269Z,83.13
2022-12-13T08:58:26.225Z,84.05
2022-12-13T08:59:26.180Z,83.45
2022-12-13T09:00:26.205Z,84.50
2022-12-13T09:01:26.107Z,86.07
2022-12-13T09:02:26.137Z,85.65
2022-12-13T09:03:26.003Z,85.34
2022-12-13T09:04:33.600Z,86.62
2022-12-13T09:05:33.345Z,86.06
2022-12-13T09:06:25.882Z,84.20
2022-12-13T09:07:25.840Z,81.98
2022-12-13T09:08:25.834Z,82.60
2022-12-13T09:09:25.739Z,83.20
2022-12-13T09:10:27.920Z,82.33
2022-12-13T09:11:34.526Z,83.06
2022-12-13T09:12:29.765Z,83.38
2022-12-13T09:13:31.769Z,83.59
2022-12-13T09:14:25.519Z,83.59
2022-12-13T09:15:25.589Z,83.76
2022-12-13T09:16:25.544Z,81.67
2022-12-13T09:17:25.527Z,81.95
2022-12-13T09:18:29.033Z,82.26
2022-12-13T09:19:26.765Z,82.09
2022-12-13T09:20:28.911Z,83.06
2022-12-13T09:21:31.081Z,83.10
2022-12-13T09:22:33.606Z,84.32
2022-12-13T09:23:25.232Z,83.80
2022-12-13T09:24:25.105Z,84.32
2022-12-13T09:25:25.040Z,82.40
2022-12-13T09:26:25.431Z,82.29
2022-12-13T09:27:27.991Z,82.50
2022-12-13T09:28:24.909Z,82.43
2022-12-13T09:29:24.869Z,82.33
2022-12-13T09:30:24.823Z,82.86
2022-12-13T09:31:24.848Z,82.36
2022-12-13T09:32:24.751Z,81.11
2022-12-13T09:33:30.158Z,81.07
2022-12-13T09:34:24.691Z,80.62
2022-12-13T09:35:24.606Z,79.78
2022-12-13T09:36:24.561Z,79.22
2022-12-13T09:37:24.517Z,78.91
2022-12-13T09:38:24.491Z,78.63
2022-12-13T09:39:24.432Z,80.16
2022-12-13T09:40:25.358Z,80.86
2022-12-13T09:41:28.592Z,80.44
2022-12-13T09:42:24.298Z,79.96
2022-12-13T09:43:32.020Z,80.16
2022-12-13T09:44:32.814Z,81.52
2022-12-13T09:45:31.704Z,81.67
2022-12-13T09:46:25.087Z,81.98
2022-12-13T09:47:24.457Z,80.93
2022-12-13T09:48:24.323Z,81.15
2022-12-13T09:49:24.052Z,81.11
2022-12-13T09:50:27.867Z,79.89
2022-12-13T09:51:29.844Z,80.62
2022-12-13T09:52:23.887Z,80.79
2022-12-13T09:53:23.819Z,81.21
2022-12-13T09:54:23.776Z,80.79
2022-12-13T09:55:23.732Z,80.48
2022-12-13T09:56:23.714Z,81.32
2022-12-13T09:57:32.120Z,81.73
2022-12-13T09:58:24.020Z,81.87
2022-12-13T09:59:23.557Z,81.84
2022-12-13T10:00:23.509Z,82.46
2022-12-13T10:01:23.840Z,81.29
2022-12-13T10:02:23.514Z,83.62
2022-12-13T10:03:23.700Z,83.14
2022-12-13T10:04:23.334Z,84.25
2022-12-13T10:05:33.836Z,83.90
2022-12-13T10:06:23.790Z,83.27
2022-12-13T10:07:23.200Z,82.06
2022-12-13T10:08:23.153Z,84.42
2022-12-13T10:09:23.110Z,83.97
2022-12-13T10:10:23.104Z,82.92
2022-12-13T10:11:23.021Z,83.62
2022-12-13T10:12:22.992Z,84.14
2022-12-13T10:13:23.431Z,82.54
2022-12-13T10:14:22.885Z,83.38
2022-12-13T10:15:22.927Z,83.17
2022-12-13T10:16:23.833Z,82.92
2022-12-13T10:17:22.755Z,83.48
2022-12-13T10:18:22.701Z,82.71
2022-12-13T10:19:29.124Z,81.84
2022-12-13T10:20:22.612Z,81.95
2022-12-13T10:21:22.572Z,81.95
2022-12-13T10:22:22.533Z,82.01
2022-12-13T10:23:38.483Z,80.02
2022-12-13T10:24:28.679Z,80.65
2022-12-13T10:25:22.393Z,82.46
2022-12-13T10:26:24.467Z,82.26
2022-12-13T10:27:22.318Z,82.36
2022-12-13T10:28:22.254Z,81.07
2022-12-13T10:29:22.213Z,81.11
2022-12-13T10:30:28.007Z,80.34
2022-12-13T10:31:22.189Z,80.34
2022-12-13T10:32:22.075Z,81.07
2022-12-13T10:33:24.047Z,81.80
2022-12-13T10:34:22.009Z,81.73
2022-12-13T10:35:21.953Z,79.50
2022-12-13T10:36:26.409Z,78.17
2022-12-13T10:37:21.854Z,76.51
2022-12-13T10:38:21.808Z,76.26
2022-12-13T10:39:21.771Z,75.95
2022-12-13T10:40:32.019Z,75.40
2022-12-13T10:41:21.676Z,76.33
2022-12-13T10:42:23.679Z,74.87
2022-12-13T10:43:22.071Z,75.32
2022-12-13T10:44:21.555Z,76.89
2022-12-13T10:45:23.401Z,77.03
2022-12-13T10:46:25.073Z,74.29
2022-12-13T10:47:21.415Z,73.90
2022-12-13T10:48:21.391Z,73.87
2022-12-13T10:49:21.348Z,73.42
2022-12-13T10:50:21.283Z,72.86
2022-12-13T10:51:21.245Z,72.86
2022-12-13T10:52:30.875Z,72.31
2022-12-13T10:53:22.903Z,73.07
2022-12-13T10:54:21.115Z,73.80
2022-12-13T10:55:23.158Z,75.01
2022-12-13T10:56:23.132Z,75.78
2022-12-13T10:57:20.991Z,77.59
2022-12-13T10:58:20.956Z,78.94
2022-12-13T10:59:20.905Z,80.05
2022-12-13T11:00:20.884Z,79.05
2022-12-13T11:01:20.863Z,79.82
2022-12-13T11:02:20.830Z,80.68
2022-12-13T11:03:20.754Z,79.60
2022-12-13T11:04:26.904Z,78.80
2022-12-13T11:05:23.240Z,77.69
2022-12-13T11:06:20.614Z,76.61
2022-12-13T11:07:20.574Z,74.80
2022-12-13T11:08:20.518Z,75.29
2022-12-13T11:09:23.141Z,73.87
2022-12-13T11:10:26.688Z,73.39
2022-12-13T11:11:20.385Z,71.28
2022-12-13T11:12:20.348Z,69.90
2022-12-13T11:13:20.318Z,68.65
2022-12-13T11:14:20.267Z,68.96
2022-12-13T11:15:23.005Z,68.55
2022-12-13T11:16:20.223Z,68.86
2022-12-13T11:17:21.092Z,68.76
2022-12-13T11:18:20.090Z,68.13
2022-12-13T11:19:20.126Z,70.17
2022-12-13T11:20:20.016Z,70.41
2022-12-13T11:21:19.959Z,69.79
2022-12-13T11:22:19.925Z,70.62
2022-12-13T11:23:19.881Z,71.28
2022-12-13T11:24:23.089Z,73.63
2022-12-13T11:25:19.790Z,72.90
2022-12-13T11:26:24.337Z,72.34
2022-12-13T11:27:19.704Z,71.00
2022-12-13T11:28:37.336Z,71.51
2022-12-13T11:29:19.624Z,71.10
2022-12-13T11:30:19.600Z,71.41
2022-12-13T11:31:19.592Z,71.17
2022-12-13T11:32:22.823Z,71.65
2022-12-13T11:33:19.445Z,73.56
2022-12-13T11:34:19.409Z,72.72
2022-12-13T11:35:19.360Z,73.87
2022-12-13T11:36:19.333Z,75.12
2022-12-13T11:37:19.290Z,75.40
2022-12-13T11:38:19.242Z,73.28
2022-12-13T11:39:19.189Z,72.42
2022-12-13T11:40:19.150Z,71.17
2022-12-13T11:41:32.435Z,72.00
2022-12-13T11:42:19.088Z,72.03
2022-12-13T11:43:19.016Z,72.69
2022-12-13T11:44:18.974Z,73.69
2022-12-13T11:45:22.462Z,73.97
2022-12-13T11:46:18.944Z,74.01
2022-12-13T11:47:18.865Z,74.80
2022-12-13T11:48:18.805Z,75.98
2022-12-13T11:49:18.759Z,76.09
2022-12-13T11:50:33.108Z,76.37
2022-12-13T11:51:18.672Z,75.67
2022-12-13T11:52:18.631Z,76.30
2022-12-13T11:53:18.596Z,76.33
2022-12-13T11:54:24.123Z,77.23
2022-12-13T11:55:18.501Z,75.78
2022-12-13T11:56:18.460Z,74.91
2022-12-13T11:57:18.412Z,74.15
2022-12-13T11:58:32.546Z,74.63
2022-12-13T11:59:24.299Z,74.01
2022-12-13T12:00:33.547Z,73.69
2022-12-13T12:01:18.236Z,72.24
2022-12-13T12:02:18.249Z,74.63
2022-12-13T12:03:18.212Z,72.76
2022-12-13T12:04:18.151Z,72.34
2022-12-13T12:05:18.061Z,72.66
2022-12-13T12:06:18.016Z,73.59
2022-12-13T12:07:32.308Z,73.56
2022-12-13T12:08:33.613Z,73.25
2022-12-13T12:09:17.881Z,72.00
2022-12-13T12:10:17.847Z,72.10
2022-12-13T12:11:17.793Z,73.35
2022-12-13T12:12:22.037Z,73.03
2022-12-13T12:13:17.704Z,73.28
2022-12-13T12:14:17.672Z,72.86
2022-12-13T12:15:17.627Z,73.07
2022-12-13T12:16:17.619Z,73.49
2022-12-13T12:17:17.532Z,73.18
2022-12-13T12:18:17.496Z,73.21
2022-12-13T12:19:17.444Z,74.18
2022-12-13T12:20:23.571Z,73.66
2022-12-13T12:21:17.358Z,73.35
2022-12-13T12:22:17.318Z,74.07
2022-12-13T12:23:17.273Z,75.05
2022-12-13T12:24:17.229Z,74.74
2022-12-13T12:25:17.180Z,74.74
2022-12-13T12:26:17.154Z,75.95
2022-12-13T12:27:22.524Z,75.36
2022-12-13T12:28:17.054Z,74.70
2022-12-13T12:29:17.017Z,74.60
2022-12-13T12:30:23.330Z,75.05
2022-12-13T12:31:16.956Z,74.60
2022-12-13T12:32:16.883Z,75.43
2022-12-13T12:33:16.835Z,76.26
2022-12-13T12:34:16.789Z,74.60
2022-12-13T12:35:16.746Z,74.60
2022-12-13T12:36:16.716Z,73.86
2022-12-13T12:37:16.657Z,74.74
2022-12-13T12:38:16.617Z,74.70
2022-12-13T12:39:16.570Z,73.76
2022-12-13T12:40:16.525Z,74.01
2022-12-13T12:41:17.489Z,74.66
2022-12-13T12:42:16.480Z,75.15
2022-12-13T12:43:16.716Z,75.08
2022-12-13T12:44:16.347Z,75.05
2022-12-13T12:45:27.076Z,75.18
2022-12-13T12:46:16.307Z,75.26
2022-12-13T12:47:37.420Z,76.09
2022-12-13T12:49:16.227Z,74.60
2022-12-13T12:50:16.085Z,73.86
2022-12-13T12:51:16.035Z,73.66
2022-12-13T12:52:15.987Z,74.42
2022-12-13T12:53:15.941Z,74.42